Ceres, New York
Current Conditions -  °F | °C
As of 6:56 AM on Tuesday 21 Oct 2014 (Local Time) from KELZ Reporting Station
Light Rain Light Rain  
Wind Chill: 43°   Ceiling: 3600
Heat Index: 47°   Visibility: 10mi
Dew Point: 44°   Wind: 9mph
Humidity: 90%   Direction: 230°SW
Pressure: 29.81"   Gusts: NA
Location:  42°N, 78.27°W
Report Text: KELZ 211056Z AUTO 23008KT 10SM -RA FEW009 BKN036 OVC047 08/07 A2981 RMK AO2 SLP099 P0002 T00830067
Loading
Personal Weather Stations






























Interactive Weather Map
Tropical Storm Tracking
New forecast layout! Learn more

10-Day Weather Forecast

Advertisements
Track Severe Weather on mobile